createdAt,value
2023-02-19T00:01:15.280Z,85.30
2023-02-19T00:03:42.947Z,85.50
2023-02-19T00:06:11.635Z,86.20
2023-02-19T00:08:39.061Z,86.90
2023-02-19T00:11:13.566Z,87.20
2023-02-19T00:13:42.131Z,87.40
2023-02-19T00:16:10.520Z,87.80
2023-02-19T00:18:37.750Z,87.90
2023-02-19T00:21:05.022Z,88.40
2023-02-19T00:23:32.282Z,88.00
2023-02-19T00:26:18.135Z,88.00
2023-02-19T00:28:53.244Z,88.40
2023-02-19T00:31:20.928Z,88.50
2023-02-19T00:33:48.861Z,88.40
2023-02-19T00:36:19.882Z,88.00
2023-02-19T00:38:47.926Z,87.40
2023-02-19T00:41:21.795Z,86.10
2023-02-19T00:44:02.875Z,85.10
2023-02-19T00:46:31.882Z,84.40
2023-02-19T00:48:59.161Z,84.20
2023-02-19T00:51:28.979Z,84.20
2023-02-19T00:53:56.222Z,84.80
2023-02-19T00:56:23.362Z,84.80
2023-02-19T00:58:50.746Z,85.70
2023-02-19T01:01:18.347Z,86.60
2023-02-19T01:03:45.630Z,87.20
2023-02-19T01:06:13.655Z,87.70
2023-02-19T01:08:40.950Z,88.30
2023-02-19T01:11:08.595Z,89.00
2023-02-19T01:13:36.295Z,88.80
2023-02-19T01:16:18.168Z,88.80
2023-02-19T01:18:45.979Z,89.10
2023-02-19T01:21:23.545Z,90.00
2023-02-19T01:23:50.976Z,90.60
2023-02-19T01:26:20.372Z,90.80
2023-02-19T01:28:48.458Z,91.30
2023-02-19T01:31:17.826Z,90.70
2023-02-19T01:33:48.974Z,89.30
2023-02-19T01:36:16.342Z,87.60
2023-02-19T01:38:44.228Z,86.50
2023-02-19T01:41:13.603Z,85.50
2023-02-19T01:44:04.104Z,84.40
2023-02-19T01:46:34.924Z,83.20
2023-02-19T01:49:11.017Z,82.50
2023-02-19T01:51:40.893Z,82.00
2023-02-19T01:54:09.004Z,81.60
2023-02-19T01:56:38.610Z,81.20
2023-02-19T01:59:06.480Z,81.80
2023-02-19T02:01:35.591Z,82.50
2023-02-19T02:04:03.234Z,83.30
2023-02-19T02:06:31.691Z,85.00
2023-02-19T02:09:18.174Z,85.20
2023-02-19T02:11:48.043Z,85.80
2023-02-19T02:14:16.016Z,87.00
2023-02-19T02:17:15.469Z,88.10
2023-02-19T02:20:04.798Z,88.90
2023-02-19T02:22:42.132Z,89.40
2023-02-19T02:25:29.708Z,90.00
2023-02-19T02:28:22.195Z,90.60
2023-02-19T02:31:04.749Z,91.50
2023-02-19T02:33:39.880Z,92.10
2023-02-19T02:36:20.805Z,92.70
2023-02-19T02:38:48.431Z,92.90
2023-02-19T02:41:15.979Z,93.30
2023-02-19T02:43:43.160Z,93.50
2023-02-19T02:46:13.962Z,93.70
2023-02-19T02:48:45.923Z,93.20
2023-02-19T02:51:21.823Z,93.50
2023-02-19T02:54:38.966Z,94.00
2023-02-19T02:57:15.096Z,93.70
2023-02-19T02:59:49.425Z,93.60
2023-02-19T03:02:23.607Z,93.90
2023-02-19T03:05:13.898Z,93.90
2023-02-19T03:07:48.537Z,94.00
2023-02-19T03:10:20.229Z,93.70
2023-02-19T03:13:06.125Z,93.00
2023-02-19T03:15:55.021Z,92.80
2023-02-19T03:18:41.845Z,92.80
2023-02-19T03:21:09.413Z,92.50
2023-02-19T03:23:58.144Z,91.90
2023-02-19T03:26:25.349Z,91.60
2023-02-19T03:29:11.899Z,90.80
2023-02-19T03:31:42.944Z,90.30
2023-02-19T03:34:12.439Z,89.90
2023-02-19T03:36:48.816Z,89.00
2023-02-19T03:39:20.429Z,87.70
2023-02-19T03:42:01.743Z,86.90
2023-02-19T03:44:52.348Z,85.70
2023-02-19T03:47:38.966Z,84.70
2023-02-19T03:50:36.376Z,84.80
2023-02-19T03:53:25.076Z,85.60
2023-02-19T03:56:16.804Z,86.80
2023-02-19T03:59:04.438Z,87.50
2023-02-19T04:01:33.120Z,88.30
2023-02-19T04:04:04.742Z,88.60
2023-02-19T04:06:32.370Z,89.00
2023-02-19T04:09:00.961Z,89.90
2023-02-19T04:11:29.458Z,90.40
2023-02-19T04:14:03.567Z,90.30
2023-02-19T04:16:31.078Z,90.10
2023-02-19T04:19:02.167Z,89.90
2023-02-19T04:21:30.125Z,90.00
2023-02-19T04:23:57.331Z,89.10
2023-02-19T04:26:24.627Z,88.60
2023-02-19T04:28:51.790Z,87.00
2023-02-19T04:31:19.303Z,85.20
2023-02-19T04:33:46.537Z,83.60
2023-02-19T04:36:13.927Z,82.10
2023-02-19T04:38:44.029Z,80.80
2023-02-19T04:41:11.844Z,79.10
2023-02-19T04:43:41.100Z,77.70
2023-02-19T04:46:08.251Z,76.80
2023-02-19T04:48:35.842Z,76.30
2023-02-19T04:51:07.415Z,75.90
2023-02-19T04:53:34.857Z,74.00
2023-02-19T04:56:15.612Z,73.50
2023-02-19T04:58:42.993Z,71.60
2023-02-19T05:01:12.565Z,70.60
2023-02-19T05:03:39.999Z,70.60
2023-02-19T05:06:09.416Z,69.20
2023-02-19T05:08:36.582Z,69.70
2023-02-19T05:11:05.055Z,67.20
2023-02-19T05:13:32.306Z,66.00
2023-02-19T05:16:07.908Z,65.30
2023-02-19T05:18:35.227Z,64.50
2023-02-19T05:21:02.518Z,64.20
2023-02-19T05:23:30.121Z,62.60
2023-02-19T05:25:57.302Z,63.40
2023-02-19T05:28:28.878Z,62.30
2023-02-19T05:30:56.966Z,63.00
2023-02-19T05:33:26.188Z,62.90
2023-02-19T05:35:54.594Z,63.00
2023-02-19T05:38:21.915Z,64.50
2023-02-19T05:40:49.150Z,65.20
2023-02-19T05:43:16.491Z,66.10
2023-02-19T05:45:43.722Z,66.20
2023-02-19T05:48:11.783Z,67.50
2023-02-19T05:50:39.953Z,67.80
2023-02-19T05:53:13.878Z,68.20
2023-02-19T05:55:40.941Z,66.90
2023-02-19T05:58:08.018Z,67.00
2023-02-19T06:00:35.517Z,66.00
2023-02-19T06:03:02.748Z,65.20
2023-02-19T06:05:29.858Z,65.40
2023-02-19T06:07:57.095Z,65.10
2023-02-19T06:10:24.318Z,66.40
2023-02-19T06:12:54.632Z,66.70
2023-02-19T06:15:22.344Z,67.30
2023-02-19T06:17:49.520Z,67.70
2023-02-19T06:20:16.644Z,68.00
2023-02-19T06:22:43.823Z,68.90
2023-02-19T06:25:12.752Z,69.40
2023-02-19T06:27:39.895Z,70.00
2023-02-19T06:30:07.772Z,70.50
2023-02-19T06:32:35.017Z,70.90
2023-02-19T06:35:02.110Z,71.30
2023-02-19T06:37:29.690Z,72.60
2023-02-19T06:39:56.775Z,72.60
2023-02-19T06:42:23.771Z,73.30
2023-02-19T06:44:51.122Z,74.00
2023-02-19T06:47:18.540Z,74.40
2023-02-19T06:49:45.629Z,74.80
2023-02-19T06:52:12.862Z,74.90
2023-02-19T06:54:40.051Z,75.00
2023-02-19T06:57:08.337Z,75.20
2023-02-19T06:59:35.625Z,75.10
2023-02-19T07:02:02.739Z,75.20
2023-02-19T07:04:29.958Z,75.20
2023-02-19T07:06:57.187Z,75.50
2023-02-19T07:09:25.582Z,76.00
2023-02-19T07:11:52.778Z,76.10
2023-02-19T07:14:21.192Z,76.60
2023-02-19T07:16:48.664Z,75.20
2023-02-19T07:19:16.201Z,74.70
2023-02-19T07:21:43.544Z,74.50
2023-02-19T07:24:10.818Z,74.30
2023-02-19T07:26:38.044Z,74.90
2023-02-19T07:29:05.422Z,74.10
2023-02-19T07:31:32.543Z,73.30
2023-02-19T07:33:59.730Z,73.40
2023-02-19T07:36:27.168Z,73.30
2023-02-19T07:38:55.655Z,72.50
2023-02-19T07:41:23.437Z,71.90
2023-02-19T07:43:50.817Z,71.30
2023-02-19T07:46:18.062Z,70.50
2023-02-19T07:48:45.224Z,70.70
2023-02-19T07:51:19.100Z,69.50
2023-02-19T07:53:47.091Z,69.60
2023-02-19T07:56:14.564Z,68.50
2023-02-19T07:58:42.401Z,68.00
2023-02-19T08:01:17.837Z,66.80
2023-02-19T08:03:45.342Z,67.30
2023-02-19T08:06:12.710Z,67.50
2023-02-19T08:08:40.050Z,66.60
2023-02-19T08:11:28.981Z,66.10
2023-02-19T08:13:56.493Z,66.60
2023-02-19T08:16:40.816Z,65.80
2023-02-19T08:19:09.707Z,66.90
2023-02-19T08:21:39.985Z,66.00
2023-02-19T08:24:07.730Z,65.40
2023-02-19T08:26:35.344Z,64.60
2023-02-19T08:29:05.407Z,64.10
2023-02-19T08:31:32.974Z,64.30
2023-02-19T08:34:00.431Z,64.50
2023-02-19T08:36:27.536Z,64.00
2023-02-19T08:38:54.748Z,64.30
2023-02-19T08:41:22.154Z,63.40
2023-02-19T08:43:49.206Z,63.00
2023-02-19T08:46:16.477Z,65.70
2023-02-19T08:48:44.092Z,65.80
2023-02-19T08:51:12.885Z,63.90
2023-02-19T08:53:40.865Z,62.60
2023-02-19T08:56:17.878Z,62.70
2023-02-19T08:58:45.099Z,62.70
2023-02-19T09:01:14.853Z,62.30
2023-02-19T09:03:42.916Z,61.90
2023-02-19T09:06:17.684Z,61.30
2023-02-19T09:08:45.052Z,61.80
2023-02-19T09:11:12.816Z,61.70
2023-02-19T09:13:42.516Z,62.40
2023-02-19T09:16:09.990Z,63.90
2023-02-19T09:18:40.826Z,62.50
2023-02-19T09:21:08.495Z,60.20
2023-02-19T09:23:36.712Z,61.20
2023-02-19T09:26:06.891Z,57.80
2023-02-19T09:28:34.400Z,57.50
2023-02-19T09:31:06.408Z,50.50
2023-02-19T09:33:33.721Z,47.60
2023-02-19T09:36:01.121Z,49.20
2023-02-19T09:38:29.626Z,44.30
2023-02-19T09:41:00.039Z,45.80
2023-02-19T09:43:28.088Z,41.40
2023-02-19T09:46:01.941Z,42.40
2023-02-19T09:48:29.188Z,44.10
2023-02-19T09:50:56.353Z,36.90
2023-02-19T09:53:29.638Z,35.90
2023-02-19T09:55:57.041Z,31.90
2023-02-19T09:58:36.976Z,33.20
2023-02-19T10:01:04.925Z,33.30
2023-02-19T10:03:39.394Z,30.20
2023-02-19T10:06:10.962Z,30.40
2023-02-19T10:08:39.927Z,27.70
2023-02-19T10:11:10.222Z,28.90
2023-02-19T10:14:04.094Z,26.30
2023-02-19T10:16:31.350Z,25.10
2023-02-19T10:18:58.413Z,26.20
2023-02-19T10:21:26.349Z,24.40
2023-02-19T10:23:59.966Z,25.10
2023-02-19T10:26:27.664Z,21.40
2023-02-19T10:28:55.653Z,21.80
2023-02-19T10:31:24.527Z,20.60
2023-02-19T10:33:56.564Z,23.40
2023-02-19T10:36:32.083Z,24.90
2023-02-19T10:39:00.343Z,22.50
2023-02-19T10:41:27.696Z,21.30
2023-02-19T10:44:08.576Z,22.80
2023-02-19T10:46:37.541Z,19.30
2023-02-19T10:49:06.818Z,20.60
2023-02-19T10:51:38.721Z,19.10
2023-02-19T10:54:16.446Z,17.10
2023-02-19T10:56:43.796Z,18.10
2023-02-19T10:59:26.268Z,20.00
2023-02-19T11:02:04.410Z,17.90
2023-02-19T11:04:35.378Z,16.80
2023-02-19T11:07:17.383Z,15.60
2023-02-19T11:09:45.607Z,15.20
2023-02-19T11:12:24.654Z,12.20
2023-02-19T11:14:52.022Z,14.70
2023-02-19T11:17:29.407Z,14.60
2023-02-19T11:19:58.473Z,12.70
2023-02-19T11:22:33.374Z,12.70
2023-02-19T11:25:12.577Z,13.60
2023-02-19T11:28:26.870Z,11.50
2023-02-19T11:30:54.404Z,12.90
2023-02-19T11:33:30.136Z,15.50
2023-02-19T11:36:23.906Z,14.50
2023-02-19T11:39:01.289Z,10.30
2023-02-19T11:42:03.747Z,10.70
2023-02-19T11:44:50.941Z,13.00
2023-02-19T11:47:49.420Z,13.60
2023-02-19T11:50:50.482Z,10.00
2023-02-19T11:53:49.797Z,10.70
2023-02-19T11:56:19.905Z,7.70
2023-02-19T11:59:02.257Z,7.10
2023-02-19T12:02:11.364Z,8.30
2023-02-19T12:05:09.864Z,5.50
2023-02-19T12:08:11.506Z,3.60
2023-02-19T12:11:19.805Z,2.60
2023-02-19T12:13:52.093Z,1.00
2023-02-19T12:16:25.659Z,1.00
2023-02-19T12:19:21.379Z,1.00
2023-02-19T12:22:20.098Z,1.00
2023-02-19T12:24:50.371Z,1.00
2023-02-19T12:27:31.648Z,1.00
2023-02-19T12:30:25.785Z,1.00
2023-02-19T12:33:53.798Z,1.00
2023-02-19T12:36:24.843Z,1.00
2023-02-19T12:39:23.031Z,1.00
2023-02-19T12:42:25.847Z,1.00
2023-02-19T12:45:06.464Z,1.00
2023-02-19T12:47:37.419Z,1.00
2023-02-19T12:50:27.086Z,1.00
2023-02-19T12:53:04.207Z,1.00
2023-02-19T12:55:34.599Z,1.00
2023-02-19T12:58:06.240Z,1.00
2023-02-19T13:00:39.939Z,1.00
2023-02-19T13:03:37.888Z,1.00
2023-02-19T13:06:24.197Z,1.00
2023-02-19T13:09:12.512Z,1.00
2023-02-19T13:12:17.359Z,1.00
2023-02-19T13:14:55.467Z,1.00
2023-02-19T13:17:49.241Z,1.00
2023-02-19T13:20:36.655Z,1.00
2023-02-19T13:23:43.596Z,1.00
2023-02-19T13:26:19.723Z,1.00
2023-02-19T13:29:02.194Z,1.60
2023-02-19T13:31:32.230Z,1.00
2023-02-19T13:34:10.910Z,1.00
2023-02-19T13:36:38.521Z,1.00
2023-02-19T13:39:06.485Z,1.00
2023-02-19T13:41:35.668Z,1.00
2023-02-19T13:44:04.454Z,2.00
2023-02-19T13:46:39.352Z,1.10
2023-02-19T13:49:37.577Z,2.30
2023-02-19T13:52:30.754Z,1.00
2023-02-19T13:55:44.287Z,1.00
2023-02-19T13:58:33.328Z,1.00
2023-02-19T14:01:01.771Z,1.70
2023-02-19T14:03:35.496Z,3.70
2023-02-19T14:06:07.691Z,4.80
2023-02-19T14:08:48.391Z,4.70
2023-02-19T14:11:16.415Z,4.00
2023-02-19T14:13:53.228Z,4.80
2023-02-19T14:16:31.614Z,5.30
2023-02-19T14:18:59.072Z,5.90
2023-02-19T14:21:39.622Z,7.50
2023-02-19T14:24:11.747Z,8.60
2023-02-19T14:26:38.909Z,8.90
2023-02-19T14:29:08.388Z,8.30
2023-02-19T14:31:39.018Z,9.40
2023-02-19T14:34:22.878Z,10.60
2023-02-19T14:36:53.958Z,9.70
2023-02-19T14:39:23.412Z,9.20
2023-02-19T14:41:52.465Z,11.00
2023-02-19T14:44:47.810Z,11.10
2023-02-19T14:47:16.606Z,11.10
2023-02-19T14:49:49.490Z,11.60
2023-02-19T14:52:32.626Z,10.70
2023-02-19T14:55:30.528Z,11.10
2023-02-19T14:57:58.306Z,11.50
2023-02-19T15:00:29.858Z,13.40
2023-02-19T15:02:57.940Z,12.70
2023-02-19T15:05:29.879Z,12.20
2023-02-19T15:07:59.400Z,11.10
2023-02-19T15:10:28.134Z,11.40
2023-02-19T15:12:56.742Z,12.20
2023-02-19T15:15:26.163Z,13.10
2023-02-19T15:17:54.923Z,14.20
2023-02-19T15:20:27.173Z,14.60
2023-02-19T15:22:54.421Z,14.80
2023-02-19T15:25:23.046Z,14.20
2023-02-19T15:27:50.537Z,15.00
2023-02-19T15:30:29.494Z,14.70
2023-02-19T15:32:58.543Z,15.20
2023-02-19T15:35:29.035Z,18.20
2023-02-19T15:37:58.705Z,17.60
2023-02-19T15:40:31.016Z,17.80
2023-02-19T15:42:59.114Z,19.60
2023-02-19T15:45:43.382Z,18.70
2023-02-19T15:48:19.084Z,18.70
2023-02-19T15:51:08.317Z,18.50
2023-02-19T15:53:42.269Z,17.50
2023-02-19T15:56:15.213Z,18.90
2023-02-19T15:58:50.482Z,19.10
2023-02-19T16:01:37.881Z,16.70
2023-02-19T16:04:11.134Z,17.10
2023-02-19T16:06:59.856Z,16.90
2023-02-19T16:09:42.437Z,17.60
2023-02-19T16:12:23.207Z,17.80
2023-02-19T16:14:51.612Z,17.20
2023-02-19T16:17:23.438Z,17.80
2023-02-19T16:19:57.075Z,19.10
2023-02-19T16:22:29.045Z,18.10
2023-02-19T16:25:02.038Z,18.30
2023-02-19T16:27:40.698Z,18.60
2023-02-19T16:30:18.125Z,19.60
2023-02-19T16:32:47.014Z,22.20
2023-02-19T16:35:36.988Z,19.50
2023-02-19T16:38:14.374Z,20.40
2023-02-19T16:40:51.143Z,15.50
2023-02-19T16:43:25.681Z,13.10
2023-02-19T16:45:53.131Z,14.70
2023-02-19T16:48:21.408Z,16.20
2023-02-19T16:50:49.565Z,17.20
2023-02-19T16:53:22.035Z,15.90
2023-02-19T16:55:50.605Z,17.00
2023-02-19T16:58:18.053Z,18.10
2023-02-19T17:00:48.370Z,18.80
2023-02-19T17:03:17.601Z,22.20
2023-02-19T17:05:46.421Z,20.40
2023-02-19T17:08:25.745Z,22.70
2023-02-19T17:10:54.705Z,22.60
2023-02-19T17:13:23.157Z,23.90
2023-02-19T17:15:50.329Z,24.30
2023-02-19T17:18:17.749Z,24.90
2023-02-19T17:20:46.231Z,25.80
2023-02-19T17:23:13.471Z,27.20
2023-02-19T17:25:40.769Z,29.00
2023-02-19T17:28:07.863Z,29.20
2023-02-19T17:30:35.305Z,30.10
2023-02-19T17:33:02.689Z,31.10
2023-02-19T17:35:30.810Z,31.70
2023-02-19T17:37:58.317Z,32.10
2023-02-19T17:40:33.416Z,33.20
2023-02-19T17:43:01.334Z,34.80
2023-02-19T17:45:28.569Z,35.80
2023-02-19T17:47:57.147Z,36.30
2023-02-19T17:50:29.767Z,37.10
2023-02-19T17:52:57.422Z,39.90
2023-02-19T17:55:24.638Z,39.00
2023-02-19T17:57:52.391Z,39.70
2023-02-19T18:00:29.884Z,40.60
2023-02-19T18:02:57.602Z,41.40
2023-02-19T18:05:24.827Z,42.80
2023-02-19T18:07:52.200Z,43.00
2023-02-19T18:10:20.071Z,44.20
2023-02-19T18:12:47.402Z,44.40
2023-02-19T18:15:17.200Z,46.00
2023-02-19T18:17:44.617Z,45.20
2023-02-19T18:20:16.543Z,45.80
2023-02-19T18:22:44.238Z,45.00
2023-02-19T18:25:14.497Z,45.30
2023-02-19T18:27:44.724Z,45.20
2023-02-19T18:30:16.926Z,44.80
2023-02-19T18:32:44.181Z,43.50
2023-02-19T18:35:11.700Z,44.20
2023-02-19T18:37:39.146Z,45.10
2023-02-19T18:40:07.167Z,46.80
2023-02-19T18:42:34.378Z,47.00
2023-02-19T18:45:03.767Z,50.30
2023-02-19T18:47:30.974Z,51.90
2023-02-19T18:49:58.803Z,55.20
2023-02-19T18:52:27.707Z,55.90
2023-02-19T18:54:55.470Z,58.10
2023-02-19T18:57:23.796Z,60.40
2023-02-19T18:59:51.120Z,62.70
2023-02-19T19:02:18.445Z,64.40
2023-02-19T19:04:51.615Z,65.20
2023-02-19T19:07:18.890Z,65.80
2023-02-19T19:09:45.968Z,66.80
2023-02-19T19:12:13.086Z,67.60
2023-02-19T19:14:42.564Z,66.70
2023-02-19T19:17:09.717Z,67.20
2023-02-19T19:19:38.076Z,65.50
2023-02-19T19:22:05.273Z,65.60
2023-02-19T19:24:32.370Z,65.60
2023-02-19T19:26:59.420Z,66.20
2023-02-19T19:29:26.903Z,65.50
2023-02-19T19:31:53.984Z,65.40
2023-02-19T19:34:21.121Z,65.30
2023-02-19T19:36:48.349Z,64.70
2023-02-19T19:39:15.493Z,64.30
2023-02-19T19:41:42.553Z,63.20
2023-02-19T19:44:09.967Z,64.70
2023-02-19T19:46:43.677Z,66.80
2023-02-19T19:49:11.608Z,67.40
2023-02-19T19:51:39.063Z,71.70
2023-02-19T19:54:06.815Z,74.50
2023-02-19T19:56:39.533Z,77.20
2023-02-19T19:59:06.689Z,77.80
2023-02-19T20:01:33.884Z,78.50
2023-02-19T20:04:01.325Z,78.00
2023-02-19T20:06:29.873Z,79.00
2023-02-19T20:08:57.225Z,79.50
2023-02-19T20:11:24.626Z,79.90
2023-02-19T20:13:51.886Z,81.70
2023-02-19T20:16:27.169Z,81.30
2023-02-19T20:18:54.365Z,81.90
2023-02-19T20:21:21.429Z,81.80
2023-02-19T20:23:48.662Z,83.80
2023-02-19T20:26:25.743Z,83.60
2023-02-19T20:28:53.797Z,83.70
2023-02-19T20:31:21.430Z,84.90
2023-02-19T20:33:51.102Z,85.90
2023-02-19T20:36:20.389Z,86.80
2023-02-19T20:38:49.409Z,85.90
2023-02-19T20:41:16.653Z,86.50
2023-02-19T20:43:44.007Z,87.30
2023-02-19T20:46:12.131Z,87.50
2023-02-19T20:48:39.740Z,88.30
2023-02-19T20:51:06.964Z,89.20
2023-02-19T20:53:34.295Z,88.30
2023-02-19T20:56:01.504Z,89.30
2023-02-19T20:58:28.678Z,89.50
2023-02-19T21:00:58.867Z,88.90
2023-02-19T21:03:26.252Z,89.10
2023-02-19T21:05:53.433Z,89.50
2023-02-19T21:08:20.757Z,91.60
2023-02-19T21:10:48.039Z,93.70
2023-02-19T21:13:15.543Z,93.60
2023-02-19T21:15:43.756Z,93.00
2023-02-19T21:18:11.084Z,91.80
2023-02-19T21:20:38.328Z,91.90
2023-02-19T21:23:05.601Z,91.70
2023-02-19T21:25:34.416Z,91.90
2023-02-19T21:28:01.629Z,92.50
2023-02-19T21:30:29.013Z,93.40
2023-02-19T21:32:56.422Z,93.50
2023-02-19T21:35:23.608Z,95.50
2023-02-19T21:37:50.959Z,96.00
2023-02-19T21:40:22.227Z,95.50
2023-02-19T21:42:49.661Z,94.70
2023-02-19T21:45:16.805Z,94.80
2023-02-19T21:47:44.097Z,95.00
2023-02-19T21:50:14.266Z,96.20
2023-02-19T21:52:42.058Z,95.80
2023-02-19T21:55:09.212Z,95.80
2023-02-19T21:57:36.857Z,94.60
2023-02-19T22:00:05.538Z,95.00
2023-02-19T22:02:33.099Z,93.80
2023-02-19T22:05:00.461Z,94.20
2023-02-19T22:07:27.710Z,94.80
2023-02-19T22:09:54.884Z,94.60
2023-02-19T22:12:22.239Z,94.20
2023-02-19T22:14:49.925Z,93.80
2023-02-19T22:17:17.150Z,94.80
2023-02-19T22:19:44.417Z,95.40
2023-02-19T22:22:11.964Z,95.30
2023-02-19T22:24:39.146Z,96.20
2023-02-19T22:27:06.476Z,96.90
2023-02-19T22:29:34.211Z,96.80
2023-02-19T22:32:01.665Z,96.00
2023-02-19T22:34:29.098Z,97.10
2023-02-19T22:36:56.270Z,97.00
2023-02-19T22:39:25.267Z,97.30
2023-02-19T22:41:52.833Z,97.40
2023-02-19T22:44:20.034Z,97.30
2023-02-19T22:46:55.123Z,97.80
2023-02-19T22:49:22.822Z,98.30
2023-02-19T22:51:51.373Z,99.60
2023-02-19T22:54:25.158Z,99.70
2023-02-19T22:56:53.256Z,99.90
2023-02-19T22:59:21.145Z,99.50
2023-02-19T23:01:49.161Z,99.00
2023-02-19T23:04:16.562Z,99.80
2023-02-19T23:06:47.160Z,99.90
2023-02-19T23:09:17.389Z,99.90
2023-02-19T23:11:44.742Z,99.90
2023-02-19T23:14:12.893Z,99.90
2023-02-19T23:16:40.755Z,99.90
2023-02-19T23:19:14.435Z,99.90
2023-02-19T23:21:43.173Z,99.90
2023-02-19T23:24:10.943Z,99.90
2023-02-19T23:26:45.974Z,99.90
2023-02-19T23:29:15.888Z,99.90
2023-02-19T23:31:43.492Z,99.90
2023-02-19T23:34:11.131Z,99.90
2023-02-19T23:36:46.331Z,99.90
2023-02-19T23:39:14.689Z,99.90
2023-02-19T23:41:52.936Z,99.90
2023-02-19T23:44:21.087Z,99.90
2023-02-19T23:46:48.518Z,99.90
2023-02-19T23:49:15.652Z,99.90
2023-02-19T23:51:42.899Z,99.90
2023-02-19T23:54:11.275Z,99.90
2023-02-19T23:56:38.636Z,99.90
2023-02-19T23:59:05.890Z,99.90
